createdAt,value
2022-11-07T00:01:53.237Z,1.65
2022-11-07T00:04:19.593Z,1.80
2022-11-07T00:06:46.550Z,1.40
2022-11-07T00:09:13.212Z,1.70
2022-11-07T00:11:39.528Z,1.80
2022-11-07T00:14:06.021Z,1.30
2022-11-07T00:16:32.874Z,1.20
2022-11-07T00:18:59.257Z,1.40
2022-11-07T00:21:25.696Z,1.88
2022-11-07T00:23:51.966Z,1.73
2022-11-07T00:26:18.262Z,1.65
2022-11-07T00:28:44.785Z,1.60
2022-11-07T00:31:12.560Z,1.90
2022-11-07T00:33:38.996Z,2.00
2022-11-07T00:36:05.640Z,1.52
2022-11-07T00:38:32.151Z,1.80
2022-11-07T00:40:59.430Z,2.40
2022-11-07T00:43:26.154Z,1.80
2022-11-07T00:45:52.445Z,1.67
2022-11-07T00:48:19.101Z,1.70
2022-11-07T00:50:45.614Z,1.90
2022-11-07T00:53:12.627Z,1.77
2022-11-07T00:55:39.126Z,1.55
2022-11-07T00:58:09.811Z,1.60
2022-11-07T01:00:40.066Z,2.00
2022-11-07T01:03:24.942Z,1.50
2022-11-07T01:05:59.027Z,1.98
2022-11-07T01:08:25.582Z,1.98
2022-11-07T01:10:52.001Z,1.90
2022-11-07T01:13:18.308Z,2.00
2022-11-07T01:15:44.630Z,2.28
2022-11-07T01:18:10.978Z,1.77
2022-11-07T01:20:37.539Z,1.90
2022-11-07T01:23:04.137Z,2.25
2022-11-07T01:25:30.533Z,1.77
2022-11-07T01:27:56.842Z,1.90
2022-11-07T01:30:23.218Z,2.72
2022-11-07T01:32:49.627Z,1.40
2022-11-07T01:35:16.207Z,1.60
2022-11-07T01:37:42.990Z,1.90
2022-11-07T01:40:09.622Z,1.77
2022-11-07T01:42:35.911Z,1.63
2022-11-07T01:45:02.363Z,1.40
2022-11-07T01:47:31.363Z,1.77
2022-11-07T01:49:58.664Z,1.40
2022-11-07T01:52:31.078Z,1.20
2022-11-07T01:55:20.370Z,1.48
2022-11-07T01:57:46.757Z,1.92
2022-11-07T02:00:15.216Z,1.33
2022-11-07T02:02:42.364Z,1.55
2022-11-07T02:05:09.317Z,1.40
2022-11-07T02:07:36.356Z,1.48
2022-11-07T02:10:03.487Z,1.50
2022-11-07T02:12:29.920Z,1.50
2022-11-07T02:14:56.851Z,1.25
2022-11-07T02:17:24.340Z,0.90
2022-11-07T02:19:52.892Z,1.20
2022-11-07T02:22:38.004Z,0.80
2022-11-07T02:25:06.362Z,1.50
2022-11-07T02:27:33.655Z,1.40
2022-11-07T02:30:07.128Z,1.40
2022-11-07T02:32:35.170Z,1.50
2022-11-07T02:35:07.609Z,1.45
2022-11-07T02:37:35.835Z,1.40
2022-11-07T02:40:04.021Z,1.65
2022-11-07T02:42:43.669Z,1.30
2022-11-07T02:45:11.669Z,1.27
2022-11-07T02:47:38.027Z,1.45
2022-11-07T02:50:07.183Z,1.88
2022-11-07T02:52:33.475Z,1.92
2022-11-07T02:54:59.773Z,2.08
2022-11-07T02:57:26.999Z,1.70
2022-11-07T02:59:53.365Z,2.10
2022-11-07T03:02:19.777Z,2.05
2022-11-07T03:04:49.146Z,2.25
2022-11-07T03:07:15.596Z,1.90
2022-11-07T03:09:41.883Z,1.90
2022-11-07T03:12:08.246Z,2.35
2022-11-07T03:14:34.800Z,2.25
2022-11-07T03:17:01.143Z,2.50
2022-11-07T03:19:27.455Z,2.25
2022-11-07T03:21:54.004Z,2.00
2022-11-07T03:24:20.330Z,2.17
2022-11-07T03:26:46.767Z,1.85
2022-11-07T03:29:13.104Z,1.90
2022-11-07T03:31:41.728Z,2.30
2022-11-07T03:34:08.193Z,2.05
2022-11-07T03:36:34.565Z,2.30
2022-11-07T03:39:00.995Z,1.95
2022-11-07T03:41:27.520Z,2.20
2022-11-07T03:43:54.013Z,1.80
2022-11-07T03:46:20.305Z,2.08
2022-11-07T03:48:46.763Z,2.08
2022-11-07T03:51:13.193Z,2.33
2022-11-07T03:53:39.629Z,2.15
2022-11-07T03:56:09.937Z,2.03
2022-11-07T03:58:36.378Z,2.28
2022-11-07T04:01:03.377Z,1.80
2022-11-07T04:03:30.005Z,2.10
2022-11-07T04:05:56.307Z,2.30
2022-11-07T04:08:22.743Z,1.98
2022-11-07T04:10:49.168Z,2.20
2022-11-07T04:13:34.566Z,2.00
2022-11-07T04:16:14.948Z,2.53
2022-11-07T04:18:43.658Z,2.20
2022-11-07T04:21:09.976Z,2.30
2022-11-07T04:23:36.738Z,1.75
2022-11-07T04:26:21.532Z,2.30
2022-11-07T04:28:47.975Z,2.88
2022-11-07T04:31:14.321Z,2.30
2022-11-07T04:33:40.607Z,2.67
2022-11-07T04:36:07.209Z,2.22
2022-11-07T04:38:33.539Z,2.65
2022-11-07T04:40:59.857Z,2.42
2022-11-07T04:43:26.926Z,2.70
2022-11-07T04:45:53.292Z,2.38
2022-11-07T04:48:19.782Z,2.63
2022-11-07T04:50:46.207Z,2.22
2022-11-07T04:53:13.493Z,2.85
2022-11-07T04:55:40.060Z,2.50
2022-11-07T04:58:07.519Z,2.70
2022-11-07T05:00:33.897Z,2.30
2022-11-07T05:03:01.514Z,2.70
2022-11-07T05:05:28.100Z,2.90
2022-11-07T05:07:54.385Z,2.55
2022-11-07T05:10:29.515Z,2.20
2022-11-07T05:12:56.568Z,1.60
2022-11-07T05:15:23.235Z,1.60
2022-11-07T05:17:49.566Z,1.38
2022-11-07T05:20:27.584Z,1.25
2022-11-07T05:23:13.276Z,1.10
2022-11-07T05:25:44.119Z,1.23
2022-11-07T05:28:11.466Z,1.30
2022-11-07T05:30:39.249Z,1.55
2022-11-07T05:33:05.702Z,1.20
2022-11-07T05:35:32.120Z,1.05
2022-11-07T05:37:58.408Z,1.10
2022-11-07T05:40:24.760Z,1.10
2022-11-07T05:42:51.051Z,1.13
2022-11-07T05:45:17.519Z,1.70
2022-11-07T05:47:44.045Z,1.27
2022-11-07T05:50:10.413Z,1.70
2022-11-07T05:52:36.857Z,1.60
2022-11-07T05:55:03.335Z,1.75
2022-11-07T05:57:30.544Z,1.15
2022-11-07T05:59:56.901Z,1.67
2022-11-07T06:02:23.449Z,1.40
2022-11-07T06:04:52.261Z,1.17
2022-11-07T06:07:18.594Z,1.23
2022-11-07T06:09:44.999Z,1.20
2022-11-07T06:12:11.346Z,1.38
2022-11-07T06:14:37.716Z,1.17
2022-11-07T06:17:04.303Z,1.20
2022-11-07T06:19:30.671Z,1.15
2022-11-07T06:21:57.024Z,1.00
2022-11-07T06:24:23.710Z,1.83
2022-11-07T06:26:50.039Z,1.02
2022-11-07T06:29:16.489Z,1.42
2022-11-07T06:31:42.949Z,1.52
2022-11-07T06:34:09.242Z,1.17
2022-11-07T06:36:35.606Z,1.23
2022-11-07T06:39:02.002Z,1.38
2022-11-07T06:41:28.306Z,1.00
2022-11-07T06:43:54.879Z,1.00
2022-11-07T06:46:23.206Z,1.10
2022-11-07T06:48:49.682Z,2.00
2022-11-07T06:51:16.063Z,1.90
2022-11-07T06:53:42.685Z,1.88
2022-11-07T06:56:12.320Z,1.85
2022-11-07T06:58:38.742Z,1.73
2022-11-07T07:01:06.425Z,1.90
2022-11-07T07:03:33.906Z,1.80
2022-11-07T07:06:01.867Z,1.90
2022-11-07T07:08:28.636Z,1.77
2022-11-07T07:10:54.936Z,2.20
2022-11-07T07:13:21.238Z,1.95
2022-11-07T07:15:54.907Z,2.53
2022-11-07T07:18:21.563Z,2.83
2022-11-07T07:20:51.532Z,3.05
2022-11-07T07:23:18.999Z,2.33
2022-11-07T07:25:45.834Z,2.63
2022-11-07T07:28:12.227Z,2.53
2022-11-07T07:30:38.941Z,2.38
2022-11-07T07:33:05.389Z,1.98
2022-11-07T07:35:31.839Z,1.77
2022-11-07T07:37:58.499Z,1.50
2022-11-07T07:40:24.835Z,1.10
2022-11-07T07:42:51.250Z,1.10
2022-11-07T07:45:18.056Z,1.13
2022-11-07T07:47:44.455Z,1.40
2022-11-07T07:50:12.258Z,2.17
2022-11-07T07:52:38.785Z,1.55
2022-11-07T07:55:07.830Z,1.60
2022-11-07T07:57:38.052Z,1.25
2022-11-07T08:00:04.769Z,1.30
2022-11-07T08:02:31.448Z,1.40
2022-11-07T08:04:57.815Z,1.55
2022-11-07T08:07:24.463Z,1.50
2022-11-07T08:09:52.526Z,1.40
2022-11-07T08:12:18.826Z,1.73
2022-11-07T08:14:45.235Z,1.77
2022-11-07T08:17:11.550Z,1.65
2022-11-07T08:19:37.890Z,1.73
2022-11-07T08:22:04.624Z,1.40
2022-11-07T08:24:30.922Z,1.30
2022-11-07T08:26:57.540Z,1.50
2022-11-07T08:29:23.883Z,1.42
2022-11-07T08:31:50.742Z,1.60
2022-11-07T08:34:18.455Z,1.40
2022-11-07T08:36:44.933Z,1.60
2022-11-07T08:39:11.252Z,1.88
2022-11-07T08:41:37.763Z,1.20
2022-11-07T08:44:04.231Z,1.02
2022-11-07T08:46:30.541Z,1.27
2022-11-07T08:48:56.938Z,1.92
2022-11-07T08:51:23.445Z,1.63
2022-11-07T08:53:49.743Z,1.40
2022-11-07T08:56:16.104Z,1.58
2022-11-07T08:58:42.469Z,1.30
2022-11-07T09:01:09.338Z,1.27
2022-11-07T09:03:48.910Z,1.58
2022-11-07T09:06:17.197Z,0.95
2022-11-07T09:08:43.685Z,1.00
2022-11-07T09:11:10.063Z,1.10
2022-11-07T09:13:36.832Z,1.35
2022-11-07T09:16:04.472Z,1.02
2022-11-07T09:18:31.696Z,1.40
2022-11-07T09:20:58.590Z,1.10
2022-11-07T09:23:25.333Z,1.02
2022-11-07T09:25:51.686Z,1.45
2022-11-07T09:28:18.287Z,1.20
2022-11-07T09:30:44.644Z,0.90
2022-11-07T09:33:11.093Z,1.10
2022-11-07T09:35:37.704Z,1.10
2022-11-07T09:38:04.028Z,1.30
2022-11-07T09:40:43.612Z,1.20
2022-11-07T09:43:32.933Z,1.00
2022-11-07T09:46:25.644Z,1.08
2022-11-07T09:49:04.046Z,1.13
2022-11-07T09:51:33.854Z,1.08
2022-11-07T09:54:04.115Z,1.55
2022-11-07T09:56:31.710Z,1.88
2022-11-07T09:58:59.446Z,1.40
2022-11-07T10:01:28.306Z,1.67
2022-11-07T10:04:25.166Z,1.52
2022-11-07T10:06:49.229Z,1.23
2022-11-07T10:09:18.376Z,1.10
2022-11-07T10:11:47.667Z,1.38
2022-11-07T10:14:29.407Z,1.70
2022-11-07T10:16:55.696Z,1.52
2022-11-07T10:19:32.677Z,2.10
2022-11-07T10:21:59.042Z,1.50
2022-11-07T10:24:25.701Z,1.20
2022-11-07T10:26:52.786Z,1.35
2022-11-07T10:29:24.798Z,1.20
2022-11-07T10:34:53.113Z,1.58
2022-11-07T10:37:21.017Z,1.38
2022-11-07T10:39:47.340Z,1.75
2022-11-07T10:42:16.853Z,1.40
2022-11-07T10:44:43.689Z,1.38
2022-11-07T10:47:17.037Z,1.42
2022-11-07T10:49:53.079Z,1.73
2022-11-07T10:52:19.787Z,1.67
2022-11-07T10:54:47.022Z,1.65
2022-11-07T10:57:16.585Z,1.48
2022-11-07T10:59:52.345Z,1.40
2022-11-07T11:02:18.975Z,2.05
2022-11-07T11:04:56.597Z,1.85
2022-11-07T11:07:32.477Z,1.20
2022-11-07T11:09:59.107Z,1.60
2022-11-07T11:12:27.076Z,1.58
2022-11-07T11:15:07.390Z,1.95
2022-11-07T11:17:33.882Z,2.35
2022-11-07T11:20:00.300Z,1.30
2022-11-07T11:22:29.795Z,1.42
2022-11-07T11:25:04.169Z,1.50
2022-11-07T11:27:32.558Z,1.20
2022-11-07T11:30:07.704Z,1.48
2022-11-07T11:32:40.313Z,1.65
2022-11-07T11:35:25.471Z,1.30
2022-11-07T11:37:58.137Z,1.10
2022-11-07T11:40:24.784Z,1.27
2022-11-07T11:42:51.062Z,1.25
2022-11-07T11:45:25.587Z,1.10
2022-11-07T11:48:05.934Z,1.30
2022-11-07T11:50:41.392Z,1.40
2022-11-07T11:53:09.128Z,1.23
2022-11-07T11:55:41.745Z,2.38
2022-11-07T11:58:14.325Z,1.38
2022-11-07T12:00:47.794Z,2.25
2022-11-07T12:03:20.265Z,1.65
2022-11-07T12:05:49.703Z,1.85
2022-11-07T12:08:16.022Z,3.42
2022-11-07T12:11:00.826Z,2.30
2022-11-07T12:13:56.660Z,2.03
2022-11-07T12:16:29.369Z,2.95
2022-11-07T12:19:05.963Z,2.47
2022-11-07T12:21:33.511Z,1.60
2022-11-07T12:24:09.383Z,1.60
2022-11-07T12:26:35.778Z,1.63
2022-11-07T12:29:11.407Z,2.22
2022-11-07T12:31:38.101Z,1.50
2022-11-07T12:34:11.593Z,1.40
2022-11-07T12:36:53.436Z,1.35
2022-11-07T12:39:19.718Z,1.70
2022-11-07T12:41:46.152Z,1.80
2022-11-07T12:44:24.594Z,1.60
2022-11-07T12:47:02.267Z,1.30
2022-11-07T12:49:43.900Z,1.73
2022-11-07T12:52:10.183Z,1.23
2022-11-07T12:54:39.972Z,1.15
2022-11-07T12:57:14.196Z,1.65
2022-11-07T12:59:43.599Z,1.85
2022-11-07T13:02:21.821Z,1.48
2022-11-07T13:04:55.304Z,2.47
2022-11-07T13:07:37.572Z,1.67
2022-11-07T13:10:11.970Z,1.77
2022-11-07T13:12:42.080Z,1.15
2022-11-07T13:15:10.377Z,3.03
2022-11-07T13:17:43.358Z,5.35
2022-11-07T13:20:39.066Z,5.43
2022-11-07T13:23:13.420Z,1.92
2022-11-07T13:25:40.866Z,1.15
2022-11-07T13:28:24.719Z,1.33
2022-11-07T13:30:55.930Z,1.30
2022-11-07T13:33:26.512Z,1.58
2022-11-07T13:35:55.452Z,1.48
2022-11-07T13:38:23.444Z,1.20
2022-11-07T13:40:50.935Z,0.90
2022-11-07T13:43:29.341Z,1.73
2022-11-07T13:46:02.849Z,1.55
2022-11-07T13:48:41.854Z,1.45
2022-11-07T13:51:27.141Z,1.95
2022-11-07T13:54:08.930Z,1.30
2022-11-07T13:56:35.246Z,1.80
2022-11-07T13:59:03.058Z,1.83
2022-11-07T14:01:40.129Z,1.60
2022-11-07T14:04:40.666Z,1.45
2022-11-07T14:07:16.226Z,1.35
2022-11-07T14:09:43.516Z,1.23
2022-11-07T14:12:17.890Z,1.40
2022-11-07T14:14:44.425Z,1.92
2022-11-07T14:17:14.404Z,1.20
2022-11-07T14:19:40.996Z,1.60
2022-11-07T14:22:20.747Z,2.00
2022-11-07T14:24:50.720Z,1.40
2022-11-07T14:27:17.007Z,1.10
2022-11-07T14:29:53.837Z,1.75
2022-11-07T14:32:20.550Z,1.50
2022-11-07T14:34:48.569Z,1.27
2022-11-07T14:37:16.243Z,1.70
2022-11-07T14:39:43.474Z,1.58
2022-11-07T14:42:16.116Z,1.95
2022-11-07T14:44:59.530Z,1.50
2022-11-07T14:47:31.787Z,1.40
2022-11-07T14:49:59.391Z,1.33
2022-11-07T14:52:27.104Z,1.30
2022-11-07T14:54:59.442Z,1.30
2022-11-07T14:57:26.789Z,1.60
2022-11-07T14:59:54.352Z,1.55
2022-11-07T15:02:24.031Z,1.40
2022-11-07T15:04:50.795Z,1.48
2022-11-07T15:07:24.889Z,1.48
2022-11-07T15:09:52.329Z,1.33
2022-11-07T15:12:21.421Z,1.60
2022-11-07T15:15:12.113Z,1.50
2022-11-07T15:17:48.431Z,1.15
2022-11-07T15:20:24.177Z,1.65
2022-11-07T15:22:50.499Z,1.45
2022-11-07T15:25:28.054Z,1.75
2022-11-07T15:27:54.428Z,2.03
2022-11-07T15:30:39.167Z,1.52
2022-11-07T15:33:06.538Z,1.60
2022-11-07T15:35:48.219Z,2.17
2022-11-07T15:38:24.842Z,1.58
2022-11-07T15:40:51.792Z,1.60
2022-11-07T15:43:18.770Z,1.65
2022-11-07T15:45:45.573Z,1.75
2022-11-07T15:48:15.869Z,2.28
2022-11-07T15:50:43.209Z,1.92
2022-11-07T15:53:15.059Z,2.22
2022-11-07T15:55:41.466Z,2.65
2022-11-07T15:58:09.179Z,2.03
2022-11-07T16:00:35.609Z,2.22
2022-11-07T16:03:02.001Z,2.15
2022-11-07T16:05:28.546Z,1.92
2022-11-07T16:07:54.934Z,2.00
2022-11-07T16:10:22.455Z,2.22
2022-11-07T16:12:49.366Z,2.45
2022-11-07T16:15:17.243Z,2.65
2022-11-07T16:17:44.082Z,2.90
2022-11-07T16:20:15.537Z,2.30
2022-11-07T16:22:43.241Z,2.78
2022-11-07T16:25:18.592Z,3.13
2022-11-07T16:27:52.099Z,3.15
2022-11-07T16:30:18.899Z,3.05
2022-11-07T16:32:45.350Z,2.88
2022-11-07T16:35:11.924Z,2.63
2022-11-07T16:37:38.715Z,3.08
2022-11-07T16:40:08.500Z,2.85
2022-11-07T16:42:35.172Z,2.60
2022-11-07T16:45:02.400Z,4.18
2022-11-07T16:47:29.922Z,2.80
2022-11-07T16:49:56.733Z,3.28
2022-11-07T16:52:25.326Z,2.70
2022-11-07T16:54:51.700Z,2.80
2022-11-07T16:57:18.741Z,2.50
2022-11-07T16:59:45.680Z,2.65
2022-11-07T17:02:22.665Z,3.00
2022-11-07T17:04:53.027Z,2.38
2022-11-07T17:07:20.538Z,2.80
2022-11-07T17:09:46.929Z,2.67
2022-11-07T17:12:14.344Z,2.72
2022-11-07T17:14:41.399Z,3.47
2022-11-07T17:17:08.200Z,3.38
2022-11-07T17:19:34.573Z,2.97
2022-11-07T17:22:03.032Z,4.00
2022-11-07T17:24:30.696Z,3.42
2022-11-07T17:26:57.443Z,3.10
2022-11-07T17:29:23.776Z,3.28
2022-11-07T17:31:50.233Z,2.67
2022-11-07T17:34:16.594Z,3.35
2022-11-07T17:36:46.548Z,2.70
2022-11-07T17:39:15.990Z,3.80
2022-11-07T17:41:43.017Z,3.20
2022-11-07T17:44:10.017Z,3.10
2022-11-07T17:46:37.063Z,3.20
2022-11-07T17:49:04.708Z,3.40
2022-11-07T17:51:31.074Z,3.10
2022-11-07T17:53:58.003Z,3.63
2022-11-07T17:56:26.081Z,3.28
2022-11-07T17:58:53.472Z,2.88
2022-11-07T18:01:21.193Z,2.55
2022-11-07T18:03:49.004Z,2.50
2022-11-07T18:06:15.396Z,2.97
2022-11-07T18:08:52.882Z,2.45
2022-11-07T18:11:20.164Z,2.97
2022-11-07T18:13:49.461Z,2.60
2022-11-07T18:16:17.740Z,3.08
2022-11-07T18:18:44.055Z,2.85
2022-11-07T18:21:10.450Z,2.50
2022-11-07T18:23:36.812Z,2.90
2022-11-07T18:26:04.394Z,2.90
2022-11-07T18:28:30.832Z,3.03
2022-11-07T18:31:13.420Z,2.55
2022-11-07T18:33:40.061Z,2.50
2022-11-07T18:36:07.935Z,2.85
2022-11-07T18:38:34.376Z,2.08
2022-11-07T18:41:02.136Z,1.70
2022-11-07T18:43:28.510Z,2.35
2022-11-07T18:45:55.005Z,2.55
2022-11-07T18:48:21.668Z,3.00
2022-11-07T18:50:47.991Z,2.20
2022-11-07T18:53:14.286Z,2.53
2022-11-07T18:55:40.671Z,2.22
2022-11-07T18:58:06.965Z,2.33
2022-11-07T19:00:33.740Z,2.40
2022-11-07T19:03:00.592Z,2.10
2022-11-07T19:05:27.496Z,2.70
2022-11-07T19:07:53.815Z,1.70
2022-11-07T19:10:20.348Z,2.08
2022-11-07T19:12:47.037Z,1.40
2022-11-07T19:15:13.612Z,1.30
2022-11-07T19:17:40.181Z,1.10
2022-11-07T19:20:06.741Z,3.40
2022-11-07T19:22:33.040Z,2.30
2022-11-07T19:24:59.367Z,2.90
2022-11-07T19:27:25.684Z,2.00
2022-11-07T19:29:52.091Z,2.40
2022-11-07T19:32:18.842Z,2.40
2022-11-07T19:34:45.351Z,2.42
2022-11-07T19:37:11.953Z,2.00
2022-11-07T19:39:38.451Z,2.25
2022-11-07T19:42:04.845Z,1.98
2022-11-07T19:44:31.627Z,2.17
2022-11-07T19:46:58.050Z,2.20
2022-11-07T19:49:24.381Z,1.83
2022-11-07T19:51:52.283Z,2.00
2022-11-07T19:54:18.781Z,1.90
2022-11-07T19:56:45.125Z,2.30
2022-11-07T19:59:11.473Z,2.08
2022-11-07T20:01:39.513Z,1.73
2022-11-07T20:04:06.224Z,1.80
2022-11-07T20:06:35.338Z,2.40
2022-11-07T20:09:02.297Z,2.20
2022-11-07T20:11:28.640Z,2.25
2022-11-07T20:13:58.605Z,2.20
2022-11-07T20:16:28.399Z,2.88
2022-11-07T20:18:54.726Z,2.65
2022-11-07T20:21:22.102Z,2.50
2022-11-07T20:23:49.079Z,3.30
2022-11-07T20:26:16.693Z,3.10
2022-11-07T20:28:43.317Z,2.60
2022-11-07T20:31:10.539Z,2.20
2022-11-07T20:33:36.837Z,2.42
2022-11-07T20:36:04.972Z,2.40
2022-11-07T20:38:32.077Z,1.90
2022-11-07T20:40:58.423Z,2.20
2022-11-07T20:43:25.239Z,1.80
2022-11-07T20:45:51.793Z,1.33
2022-11-07T20:48:18.599Z,1.50
2022-11-07T20:50:45.350Z,1.90
2022-11-07T20:53:11.847Z,1.30
2022-11-07T20:55:38.884Z,1.30
2022-11-07T20:58:05.295Z,1.10
2022-11-07T21:00:31.821Z,1.00
2022-11-07T21:02:58.165Z,1.40
2022-11-07T21:05:24.517Z,1.77
2022-11-07T21:07:50.895Z,1.77
2022-11-07T21:10:17.819Z,2.00
2022-11-07T21:12:44.139Z,1.80
2022-11-07T21:15:10.788Z,1.85
2022-11-07T21:17:37.229Z,1.23
2022-11-07T21:20:04.053Z,1.20
2022-11-07T21:22:30.436Z,0.80
2022-11-07T21:24:56.925Z,0.68
2022-11-07T21:27:23.348Z,0.90
2022-11-07T21:29:49.703Z,1.42
2022-11-07T21:32:16.015Z,1.77
2022-11-07T21:34:42.731Z,1.70
2022-11-07T21:37:09.091Z,1.60
2022-11-07T21:39:35.380Z,1.20
2022-11-07T21:42:01.704Z,1.80
2022-11-07T21:44:28.018Z,1.70
2022-11-07T21:46:54.344Z,1.60
2022-11-07T21:49:21.051Z,1.73
2022-11-07T21:51:49.798Z,1.63
2022-11-07T21:54:16.176Z,1.70
2022-11-07T21:56:42.540Z,2.13
2022-11-07T21:59:09.685Z,2.58
2022-11-07T22:01:37.015Z,2.17
2022-11-07T22:04:09.867Z,1.95
2022-11-07T22:06:38.775Z,1.52
2022-11-07T22:09:06.027Z,1.90
2022-11-07T22:11:32.651Z,1.88
2022-11-07T22:13:59.147Z,2.22
2022-11-07T22:16:25.661Z,1.60
2022-11-07T22:18:52.119Z,2.67
2022-11-07T22:21:19.626Z,4.25
2022-11-07T22:23:46.082Z,4.30
2022-11-07T22:26:20.059Z,4.47
2022-11-07T22:28:46.826Z,3.58
2022-11-07T22:31:14.703Z,4.10
2022-11-07T22:33:41.283Z,3.88
2022-11-07T22:36:08.441Z,5.15
2022-11-07T22:38:35.242Z,3.58
2022-11-07T22:41:02.476Z,3.03
2022-11-07T22:43:31.910Z,3.00
2022-11-07T22:46:02.362Z,2.80
2022-11-07T22:48:28.745Z,3.05
2022-11-07T22:51:24.549Z,2.47
2022-11-07T22:54:02.176Z,2.75
2022-11-07T22:56:28.987Z,2.92
2022-11-07T22:58:55.610Z,2.78
2022-11-07T23:01:23.542Z,3.20
2022-11-07T23:03:50.300Z,3.03
2022-11-07T23:06:17.900Z,2.65
2022-11-07T23:08:44.563Z,3.60
2022-11-07T23:14:01.700Z,4.22
2022-11-07T23:16:32.542Z,3.70
2022-11-07T23:19:00.409Z,3.15
2022-11-07T23:21:27.224Z,2.90
2022-11-07T23:23:54.528Z,2.47
2022-11-07T23:26:20.924Z,2.63
2022-11-07T23:28:47.626Z,2.00
2022-11-07T23:31:14.745Z,1.50
2022-11-07T23:33:41.153Z,1.15
2022-11-07T23:36:09.967Z,1.23
2022-11-07T23:38:36.441Z,1.38
2022-11-07T23:41:04.276Z,1.30
2022-11-07T23:43:30.913Z,1.52
2022-11-07T23:46:16.424Z,1.42
2022-11-07T23:49:01.950Z,1.30
2022-11-07T23:51:28.640Z,1.35
2022-11-07T23:54:13.653Z,1.50
2022-11-07T23:56:40.156Z,1.80
2022-11-07T23:59:25.628Z,2.05
